createdAt,value
2022-08-08T00:00:50.763Z,58.44
2022-08-08T00:03:32.482Z,58.80
2022-08-08T00:06:16.536Z,59.10
2022-08-08T00:09:04.042Z,58.96
2022-08-08T00:12:09.726Z,59.36
2022-08-08T00:14:59.017Z,59.29
2022-08-08T00:18:03.760Z,59.41
2022-08-08T00:20:50.480Z,59.67
2022-08-08T00:23:43.423Z,59.88
2022-08-08T00:26:30.161Z,59.88
2022-08-08T00:29:17.553Z,59.96
2022-08-08T00:32:35.515Z,59.95
2022-08-08T00:35:18.564Z,60.01
2022-08-08T00:38:02.191Z,60.12
2022-08-08T00:41:07.384Z,60.14
2022-08-08T00:43:46.026Z,60.18
2022-08-08T00:46:56.151Z,60.27
2022-08-08T00:49:50.373Z,60.19
2022-08-08T00:52:40.110Z,60.61
2022-08-08T00:55:53.963Z,60.47
2022-08-08T00:58:36.085Z,60.57
2022-08-08T01:01:19.628Z,60.52
2022-08-08T01:04:31.850Z,60.74
2022-08-08T01:07:23.637Z,60.83
2022-08-08T01:10:32.496Z,60.60
2022-08-08T01:13:43.698Z,60.97
2022-08-08T01:16:19.355Z,61.39
2022-08-08T01:19:52.019Z,61.14
2022-08-08T01:22:52.457Z,61.55
2022-08-08T01:25:44.666Z,61.61
2022-08-08T01:28:51.822Z,61.79
2022-08-08T01:32:05.740Z,61.63
2022-08-08T01:34:36.581Z,62.00
2022-08-08T01:37:57.137Z,61.96
2022-08-08T01:41:00.488Z,62.13
2022-08-08T01:44:01.055Z,62.16
2022-08-08T01:46:52.129Z,62.42
2022-08-08T01:50:17.044Z,61.94
2022-08-08T01:53:54.740Z,62.39
2022-08-08T01:56:30.747Z,62.23
2022-08-08T02:00:01.132Z,62.58
2022-08-08T02:02:39.921Z,62.66
2022-08-08T02:05:56.887Z,62.76
2022-08-08T02:08:52.060Z,62.93
2022-08-08T02:11:59.029Z,62.89
2022-08-08T02:14:55.839Z,63.17
2022-08-08T02:17:42.506Z,63.06
2022-08-08T02:21:01.312Z,63.06
2022-08-08T02:23:36.668Z,63.56
2022-08-08T02:26:15.862Z,63.41
2022-08-08T02:29:14.826Z,63.75
2022-08-08T02:32:26.144Z,63.60
2022-08-08T02:35:08.023Z,63.52
2022-08-08T02:38:05.682Z,63.55
2022-08-08T02:40:50.116Z,63.65
2022-08-08T02:44:45.111Z,63.53
2022-08-08T02:46:45.070Z,63.90
2022-08-08T02:49:47.760Z,63.79
2022-08-08T02:52:50.247Z,63.87
2022-08-08T02:55:44.619Z,63.88
2022-08-08T02:58:17.014Z,63.75
2022-08-08T03:01:17.705Z,63.65
2022-08-08T03:05:04.994Z,63.87
2022-08-08T03:07:24.658Z,64.13
2022-08-08T03:10:31.707Z,64.29
2022-08-08T03:15:58.957Z,64.02
2022-08-08T03:16:50.961Z,64.21
2022-08-08T03:19:50.434Z,64.02
2022-08-08T03:22:38.750Z,64.02
2022-08-08T03:25:09.232Z,64.06
2022-08-08T03:27:56.642Z,63.86
2022-08-08T03:30:26.126Z,64.30
2022-08-08T03:33:56.259Z,64.22
2022-08-08T03:36:02.325Z,64.01
2022-08-08T03:38:55.896Z,64.37
2022-08-08T03:42:12.022Z,64.48
2022-08-08T03:44:04.491Z,64.51
2022-08-08T03:46:50.551Z,64.43
2022-08-08T03:49:56.354Z,64.46
2022-08-08T03:52:12.812Z,64.71
2022-08-08T03:55:01.548Z,64.59
2022-08-08T03:58:31.445Z,64.60
2022-08-08T04:00:20.293Z,64.37
2022-08-08T04:02:56.432Z,64.43
2022-08-08T04:05:35.239Z,64.52
2022-08-08T04:08:08.135Z,64.39
2022-08-08T04:10:36.111Z,64.48
2022-08-08T04:13:17.515Z,64.71
2022-08-08T04:16:03.545Z,64.49
2022-08-08T04:18:44.535Z,64.40
2022-08-08T04:21:22.811Z,64.52
2022-08-08T04:24:11.949Z,64.66
2022-08-08T04:26:56.709Z,64.80
2022-08-08T04:29:25.181Z,64.92
2022-08-08T04:31:58.512Z,64.97
2022-08-08T04:34:29.125Z,65.06
2022-08-08T04:36:59.539Z,64.79
2022-08-08T04:40:05.514Z,64.94
2022-08-08T04:42:17.174Z,64.67
2022-08-08T04:44:47.705Z,64.83
2022-08-08T04:47:16.475Z,64.74
2022-08-08T04:50:00.569Z,64.93
2022-08-08T04:52:33.497Z,65.24
2022-08-08T04:55:04.406Z,65.16
2022-08-08T04:57:34.377Z,65.27
2022-08-08T05:00:02.638Z,65.33
2022-08-08T05:02:31.570Z,65.01
2022-08-08T05:04:59.814Z,64.91
2022-08-08T05:07:37.998Z,65.37
2022-08-08T05:10:12.794Z,65.34
2022-08-08T05:12:43.030Z,65.44
2022-08-08T05:16:47.960Z,65.57
2022-08-08T05:18:13.845Z,65.45
2022-08-08T05:20:48.547Z,65.36
2022-08-08T05:23:19.227Z,65.41
2022-08-08T05:25:46.810Z,65.53
2022-08-08T05:28:14.723Z,65.43
2022-08-08T05:30:46.953Z,65.49
2022-08-08T05:33:16.855Z,65.17
2022-08-08T05:35:46.686Z,65.31
2022-08-08T05:38:31.451Z,65.41
2022-08-08T05:41:07.354Z,65.58
2022-08-08T05:44:02.855Z,65.48
2022-08-08T05:46:27.752Z,65.47
2022-08-08T05:48:55.107Z,65.70
2022-08-08T05:51:26.042Z,65.47
2022-08-08T05:54:27.101Z,65.68
2022-08-08T05:56:46.943Z,65.40
2022-08-08T05:59:58.710Z,65.42
2022-08-08T06:02:40.961Z,65.30
2022-08-08T06:05:32.859Z,65.38
2022-08-08T06:08:02.324Z,65.24
2022-08-08T06:10:33.541Z,65.16
2022-08-08T06:13:03.028Z,64.98
2022-08-08T06:15:50.460Z,64.71
2022-08-08T06:18:25.574Z,64.39
2022-08-08T06:20:58.183Z,64.03
2022-08-08T06:23:48.925Z,63.55
2022-08-08T06:26:39.131Z,63.52
2022-08-08T06:29:10.740Z,63.19
2022-08-08T06:32:10.016Z,63.16
2022-08-08T06:34:56.209Z,62.86
2022-08-08T06:37:50.833Z,63.07
2022-08-08T06:40:19.888Z,62.75
2022-08-08T06:43:09.609Z,62.86
2022-08-08T06:45:50.681Z,62.64
2022-08-08T06:48:18.541Z,62.69
2022-08-08T06:50:49.526Z,62.68
2022-08-08T06:53:22.596Z,62.95
2022-08-08T06:56:02.389Z,62.91
2022-08-08T06:58:32.926Z,62.83
2022-08-08T07:01:52.581Z,62.56
2022-08-08T07:04:35.779Z,62.59
2022-08-08T07:06:55.403Z,62.44
2022-08-08T07:09:45.261Z,62.67
2022-08-08T07:12:43.300Z,62.56
2022-08-08T07:15:31.816Z,62.43
2022-08-08T07:18:36.546Z,62.59
2022-08-08T07:21:18.557Z,62.24
2022-08-08T07:24:07.043Z,62.20
2022-08-08T07:26:53.280Z,62.64
2022-08-08T07:30:02.378Z,62.61
2022-08-08T07:32:10.838Z,62.40
2022-08-08T07:35:00.185Z,62.18
2022-08-08T07:37:56.520Z,62.54
2022-08-08T07:40:29.919Z,62.33
2022-08-08T07:43:08.635Z,62.32
2022-08-08T07:46:05.319Z,62.54
2022-08-08T07:48:25.038Z,62.44
2022-08-08T07:51:00.596Z,62.24
2022-08-08T07:54:02.480Z,62.55
2022-08-08T07:56:37.083Z,62.33
2022-08-08T07:59:14.344Z,62.30
2022-08-08T08:02:36.762Z,62.14
2022-08-08T08:04:49.119Z,61.82
2022-08-08T08:07:18.167Z,61.81
2022-08-08T08:09:49.591Z,61.99
2022-08-08T08:12:35.085Z,61.93
2022-08-08T08:15:07.004Z,61.99
2022-08-08T08:17:47.665Z,62.27
2022-08-08T08:20:18.544Z,62.32
2022-08-08T08:22:47.304Z,62.47
2022-08-08T08:25:16.905Z,62.16
2022-08-08T08:27:47.120Z,62.32
2022-08-08T08:30:15.495Z,61.74
2022-08-08T08:32:51.422Z,61.51
2022-08-08T08:35:21.717Z,61.10
2022-08-08T08:38:20.495Z,60.97
2022-08-08T08:40:48.524Z,60.81
2022-08-08T08:43:18.757Z,60.59
2022-08-08T08:45:48.469Z,60.25
2022-08-08T08:48:19.246Z,60.01
2022-08-08T08:50:53.392Z,59.89
2022-08-08T08:53:28.077Z,59.54
2022-08-08T08:56:14.502Z,59.77
2022-08-08T08:58:50.264Z,59.87
2022-08-08T09:01:27.429Z,59.27
2022-08-08T09:04:00.770Z,59.11
2022-08-08T09:06:40.497Z,58.56
2022-08-08T09:09:39.281Z,58.63
2022-08-08T09:12:12.213Z,58.26
2022-08-08T09:14:45.068Z,58.16
2022-08-08T09:17:18.713Z,58.31
2022-08-08T09:21:57.303Z,58.32
2022-08-08T09:22:36.128Z,57.79
2022-08-08T09:25:09.746Z,57.76
2022-08-08T09:27:56.236Z,56.79
2022-08-08T09:30:27.880Z,55.65
2022-08-08T09:33:12.720Z,54.46
2022-08-08T09:35:49.559Z,54.17
2022-08-08T09:38:53.211Z,54.42
2022-08-08T09:42:14.716Z,55.12
2022-08-08T09:44:40.993Z,55.33
2022-08-08T09:47:25.714Z,55.56
2022-08-08T09:50:01.771Z,55.64
2022-08-08T09:52:56.387Z,56.01
2022-08-08T09:56:03.101Z,56.39
2022-08-08T09:58:27.926Z,56.54
2022-08-08T10:01:15.207Z,56.37
2022-08-08T10:04:02.380Z,56.57
2022-08-08T10:06:32.251Z,56.74
2022-08-08T10:08:59.910Z,56.65
2022-08-08T10:12:26.352Z,56.90
2022-08-08T10:14:34.830Z,57.28
2022-08-08T10:17:30.283Z,57.28
2022-08-08T10:19:58.617Z,57.50
2022-08-08T10:22:28.692Z,57.56
2022-08-08T10:25:02.757Z,57.41
2022-08-08T10:27:34.530Z,57.40
2022-08-08T10:30:04.040Z,57.47
2022-08-08T10:32:34.082Z,56.78
2022-08-08T10:36:07.190Z,56.63
2022-08-08T10:38:05.190Z,56.35
2022-08-08T10:40:32.984Z,56.37
2022-08-08T10:43:04.697Z,56.57
2022-08-08T10:45:42.885Z,56.97
2022-08-08T10:48:32.179Z,57.01
2022-08-08T10:50:59.994Z,56.94
2022-08-08T10:53:56.397Z,56.95
2022-08-08T10:56:27.605Z,56.97
2022-08-08T10:59:00.547Z,57.30
2022-08-08T11:01:33.655Z,57.36
2022-08-08T11:04:04.602Z,57.32
2022-08-08T11:06:36.319Z,56.96
2022-08-08T11:09:19.320Z,57.08
2022-08-08T11:12:05.759Z,57.22
2022-08-08T11:14:33.547Z,56.27
2022-08-08T11:17:02.914Z,56.06
2022-08-08T11:19:33.537Z,55.45
2022-08-08T11:22:04.183Z,55.38
2022-08-08T11:24:35.777Z,55.17
2022-08-08T11:27:19.150Z,55.18
2022-08-08T11:30:04.170Z,55.37
2022-08-08T11:32:38.248Z,54.80
2022-08-08T11:35:23.347Z,54.51
2022-08-08T11:38:35.386Z,54.49
2022-08-08T11:40:41.614Z,54.42
2022-08-08T11:43:08.582Z,54.56
2022-08-08T11:46:06.924Z,54.62
2022-08-08T11:48:30.905Z,54.62
2022-08-08T11:51:00.636Z,54.42
2022-08-08T11:53:55.301Z,54.62
2022-08-08T11:56:35.377Z,54.43
2022-08-08T11:59:10.029Z,54.76
2022-08-08T12:01:37.013Z,54.59
2022-08-08T12:04:05.767Z,54.90
2022-08-08T12:06:33.693Z,55.17
2022-08-08T12:09:08.446Z,55.34
2022-08-08T12:11:52.857Z,55.63
2022-08-08T12:14:24.073Z,55.91
2022-08-08T12:16:57.057Z,55.92
2022-08-08T12:19:34.856Z,55.66
2022-08-08T12:22:13.255Z,55.95
2022-08-08T12:24:51.534Z,55.87
2022-08-08T12:27:26.506Z,55.64
2022-08-08T12:29:56.310Z,55.18
2022-08-08T12:32:22.986Z,55.36
2022-08-08T12:34:57.556Z,55.55
2022-08-08T12:37:40.915Z,55.21
2022-08-08T12:40:24.219Z,54.32
2022-08-08T12:42:52.395Z,54.22
2022-08-08T12:46:00.013Z,54.15
2022-08-08T12:48:10.351Z,54.31
2022-08-08T12:50:57.720Z,54.09
2022-08-08T12:53:30.143Z,53.76
2022-08-08T12:56:19.116Z,53.62
2022-08-08T12:58:49.615Z,53.57
2022-08-08T13:01:16.147Z,53.09
2022-08-08T13:03:51.810Z,51.30
2022-08-08T13:06:20.177Z,51.03
2022-08-08T13:08:53.849Z,50.14
2022-08-08T13:12:24.810Z,50.72
2022-08-08T13:14:58.349Z,51.67
2022-08-08T13:18:09.287Z,52.48
2022-08-08T13:20:19.766Z,53.34
2022-08-08T13:22:46.714Z,53.83
2022-08-08T13:25:19.746Z,54.28
2022-08-08T13:27:56.484Z,54.52
2022-08-08T13:30:28.518Z,54.51
2022-08-08T13:32:57.392Z,54.71
2022-08-08T13:35:29.461Z,54.25
2022-08-08T13:38:08.731Z,54.35
2022-08-08T13:40:44.583Z,54.16
2022-08-08T13:43:12.466Z,54.14
2022-08-08T13:45:38.990Z,53.23
2022-08-08T13:48:15.807Z,52.56
2022-08-08T13:50:55.174Z,52.71
2022-08-08T13:53:34.021Z,52.57
2022-08-08T13:56:06.872Z,52.51
2022-08-08T13:58:48.931Z,51.84
2022-08-08T14:01:32.988Z,51.58
2022-08-08T14:04:21.607Z,51.31
2022-08-08T14:06:48.186Z,51.42
2022-08-08T14:09:25.441Z,51.56
2022-08-08T14:12:00.338Z,52.84
2022-08-08T14:14:37.779Z,53.16
2022-08-08T14:17:07.945Z,54.05
2022-08-08T14:19:58.079Z,54.43
2022-08-08T14:22:36.971Z,55.25
2022-08-08T14:25:07.600Z,55.40
2022-08-08T14:27:37.473Z,54.82
2022-08-08T14:30:18.120Z,53.89
2022-08-08T14:32:47.280Z,52.75
2022-08-08T14:35:24.975Z,51.53
2022-08-08T14:38:09.485Z,52.09
2022-08-08T14:40:40.929Z,51.64
2022-08-08T14:43:31.597Z,51.60
2022-08-08T14:46:07.194Z,51.06
2022-08-08T14:48:57.398Z,50.98
2022-08-08T14:51:47.312Z,51.18
2022-08-08T14:54:13.834Z,51.74
2022-08-08T14:56:42.790Z,52.20
2022-08-08T14:59:22.377Z,52.99
2022-08-08T15:01:58.473Z,54.01
2022-08-08T15:04:26.222Z,54.46
2022-08-08T15:06:52.929Z,54.46
2022-08-08T15:09:19.402Z,54.56
2022-08-08T15:11:52.856Z,54.46
2022-08-08T15:14:25.269Z,54.28
2022-08-08T15:16:53.665Z,54.07
2022-08-08T15:19:21.110Z,53.76
2022-08-08T15:21:50.246Z,53.58
2022-08-08T15:24:16.838Z,53.32
2022-08-08T15:26:46.646Z,53.94
2022-08-08T15:29:19.016Z,54.44
2022-08-08T15:32:03.521Z,54.54
2022-08-08T15:34:36.381Z,54.70
2022-08-08T15:37:05.682Z,54.84
2022-08-08T15:39:38.592Z,54.51
2022-08-08T15:44:37.590Z,54.79
2022-08-08T15:47:07.145Z,54.93
2022-08-08T15:49:43.852Z,54.91
2022-08-08T15:52:13.305Z,54.47
2022-08-08T15:54:46.152Z,54.44
2022-08-08T15:57:15.623Z,54.26
2022-08-08T16:00:05.259Z,53.79
2022-08-08T16:02:43.905Z,53.44
2022-08-08T16:05:14.223Z,53.71
2022-08-08T16:07:52.584Z,53.54
2022-08-08T16:13:12.267Z,52.73
2022-08-08T16:13:45.934Z,52.99
2022-08-08T16:16:03.337Z,53.22
2022-08-08T16:18:40.298Z,53.54
2022-08-08T16:21:26.138Z,53.91
2022-08-08T16:23:55.396Z,53.11
2022-08-08T16:26:33.958Z,52.67
2022-08-08T16:29:07.755Z,52.43
2022-08-08T16:31:35.155Z,52.06
2022-08-08T16:34:03.895Z,52.11
2022-08-08T16:36:33.362Z,52.70
2022-08-08T16:39:00.897Z,53.33
2022-08-08T16:41:36.718Z,52.81
2022-08-08T16:44:04.200Z,52.67
2022-08-08T16:46:44.297Z,52.21
2022-08-08T16:55:04.078Z,52.37
2022-08-08T16:55:07.209Z,53.22
2022-08-08T16:57:23.450Z,53.76
2022-08-08T17:00:09.272Z,53.67
2022-08-08T17:02:39.125Z,53.61
2022-08-08T17:05:08.441Z,53.19
2022-08-08T17:07:37.804Z,53.02
2022-08-08T17:10:07.968Z,53.19
2022-08-08T17:12:36.670Z,53.65
2022-08-08T17:15:17.583Z,53.63
2022-08-08T17:18:03.138Z,53.77
2022-08-08T17:20:38.180Z,53.86
2022-08-08T17:23:18.293Z,53.74
2022-08-08T17:25:54.279Z,53.45
2022-08-08T17:28:34.632Z,53.67
2022-08-08T17:31:39.152Z,53.71
2022-08-08T17:34:36.684Z,53.50
2022-08-08T17:37:00.114Z,53.45
2022-08-08T17:40:03.019Z,53.72
2022-08-08T17:42:14.251Z,53.80
2022-08-08T17:44:44.245Z,54.17
2022-08-08T17:47:24.350Z,53.88
2022-08-08T17:50:01.426Z,53.70
2022-08-08T17:52:31.451Z,53.97
2022-08-08T17:55:00.925Z,54.47
2022-08-08T17:57:35.507Z,55.02
2022-08-08T18:00:13.231Z,55.46
2022-08-08T18:02:52.550Z,55.84
2022-08-08T18:05:48.100Z,55.98
2022-08-08T18:08:25.114Z,56.06
2022-08-08T18:11:02.764Z,55.25
2022-08-08T18:13:29.738Z,54.83
2022-08-08T18:16:04.208Z,54.83
2022-08-08T18:18:35.982Z,54.58
2022-08-08T18:21:10.573Z,54.61
2022-08-08T18:23:37.552Z,54.85
2022-08-08T18:26:07.049Z,55.13
2022-08-08T18:28:53.811Z,55.39
2022-08-08T18:31:20.730Z,55.43
2022-08-08T18:34:12.222Z,55.52
2022-08-08T18:36:34.581Z,55.64
2022-08-08T18:39:03.856Z,55.83
2022-08-08T18:41:51.446Z,56.06
2022-08-08T18:44:17.448Z,56.27
2022-08-08T18:46:55.112Z,56.27
2022-08-08T18:49:24.656Z,56.64
2022-08-08T18:51:59.167Z,56.74
2022-08-08T18:54:29.967Z,56.93
2022-08-08T18:56:57.408Z,57.16
2022-08-08T18:59:24.298Z,57.02
2022-08-08T19:02:25.991Z,57.14
2022-08-08T19:04:37.539Z,57.28
2022-08-08T19:07:04.178Z,57.37
2022-08-08T19:09:48.837Z,57.47
2022-08-08T19:12:17.793Z,57.43
2022-08-08T19:14:46.503Z,57.43
2022-08-08T19:17:13.374Z,57.72
2022-08-08T19:20:02.078Z,57.84
2022-08-08T19:22:29.493Z,57.68
2022-08-08T19:26:19.898Z,57.88
2022-08-08T19:27:55.766Z,58.15
2022-08-08T19:30:26.321Z,58.36
2022-08-08T19:32:53.194Z,58.56
2022-08-08T19:35:25.413Z,58.74
2022-08-08T19:38:07.005Z,58.81
2022-08-08T19:40:37.602Z,59.11
2022-08-08T19:43:11.785Z,59.01
2022-08-08T19:45:58.371Z,58.87
2022-08-08T19:48:29.135Z,58.96
2022-08-08T19:50:59.327Z,58.75
2022-08-08T19:53:52.176Z,58.96
2022-08-08T19:56:13.245Z,59.16
2022-08-08T19:58:40.012Z,59.26
2022-08-08T20:01:08.685Z,59.30
2022-08-08T20:04:01.087Z,59.82
2022-08-08T20:06:29.147Z,60.02
2022-08-08T20:08:56.603Z,59.91
2022-08-08T20:11:23.589Z,59.98
2022-08-08T20:14:32.885Z,60.06
2022-08-08T20:16:40.520Z,59.84
2022-08-08T20:19:08.675Z,60.01
2022-08-08T20:21:38.039Z,60.21
2022-08-08T20:24:08.672Z,60.23
2022-08-08T20:26:38.206Z,60.05
2022-08-08T20:29:08.569Z,60.45
2022-08-08T20:32:07.336Z,60.25
2022-08-08T20:34:30.514Z,60.27
2022-08-08T20:37:03.214Z,60.35
2022-08-08T20:39:39.338Z,60.37
2022-08-08T20:42:28.162Z,60.63
2022-08-08T20:44:56.519Z,60.40
2022-08-08T20:47:36.453Z,60.34
2022-08-08T20:50:06.106Z,60.27
2022-08-08T20:52:38.545Z,60.33
2022-08-08T20:55:16.087Z,60.59
2022-08-08T20:57:51.218Z,60.71
2022-08-08T21:00:18.518Z,60.66
2022-08-08T21:02:52.401Z,60.73
2022-08-08T21:05:19.443Z,60.67
2022-08-08T21:08:35.971Z,60.81
2022-08-08T21:10:36.198Z,60.88
2022-08-08T21:13:05.349Z,60.96
2022-08-08T21:16:04.945Z,61.22
2022-08-08T21:18:22.686Z,61.27
2022-08-08T21:20:54.341Z,61.24
2022-08-08T21:23:59.120Z,61.26
2022-08-08T21:26:07.463Z,61.48
2022-08-08T21:28:36.128Z,61.34
2022-08-08T21:31:23.323Z,61.33
2022-08-08T21:33:50.761Z,61.61
2022-08-08T21:36:20.629Z,61.46
2022-08-08T21:38:49.490Z,61.47
2022-08-08T21:41:28.817Z,61.48
2022-08-08T21:44:02.830Z,61.78
2022-08-08T21:48:04.549Z,61.77
2022-08-08T21:49:16.632Z,61.91
2022-08-08T21:54:22.982Z,62.03
2022-08-08T21:55:02.068Z,61.98
2022-08-08T21:57:17.560Z,61.82
2022-08-08T22:00:02.959Z,61.94
2022-08-08T22:02:39.887Z,62.17
2022-08-08T22:05:09.569Z,62.25
2022-08-08T22:07:41.141Z,62.07
2022-08-08T22:10:18.329Z,62.46
2022-08-08T22:13:00.313Z,62.62
2022-08-08T22:15:42.976Z,62.68
2022-08-08T22:18:26.451Z,62.79
2022-08-08T22:20:54.689Z,62.67
2022-08-08T22:23:21.074Z,62.96
2022-08-08T22:26:28.244Z,62.91
2022-08-08T22:29:13.192Z,63.02
2022-08-08T22:31:24.813Z,63.10
2022-08-08T22:34:12.891Z,63.26
2022-08-08T22:36:42.787Z,63.43
2022-08-08T22:39:11.769Z,63.45
2022-08-08T22:41:45.672Z,63.57
2022-08-08T22:44:12.924Z,63.44
2022-08-08T22:46:39.996Z,63.58
2022-08-08T22:49:06.907Z,63.66
2022-08-08T22:51:42.216Z,63.96
2022-08-08T22:54:31.045Z,63.92
2022-08-08T22:56:59.105Z,63.92
2022-08-08T22:59:25.728Z,63.88
2022-08-08T23:02:01.888Z,63.73
2022-08-08T23:04:32.432Z,63.95
2022-08-08T23:07:02.338Z,64.06
2022-08-08T23:09:30.439Z,64.22
2022-08-08T23:12:28.896Z,64.58
2022-08-08T23:14:56.065Z,64.36
2022-08-08T23:17:30.056Z,64.69
2022-08-08T23:19:56.754Z,64.55
2022-08-08T23:22:23.370Z,64.73
2022-08-08T23:24:50.732Z,64.76
2022-08-08T23:27:46.114Z,64.59
2022-08-08T23:30:06.026Z,64.59
2022-08-08T23:32:35.998Z,64.52
2022-08-08T23:35:12.640Z,64.76
2022-08-08T23:38:02.888Z,64.94
2022-08-08T23:40:31.305Z,64.86
2022-08-08T23:42:58.305Z,65.09
2022-08-08T23:49:04.330Z,65.05
2022-08-08T23:49:05.631Z,64.98
2022-08-08T23:51:02.401Z,65.03
2022-08-08T23:54:06.377Z,65.10
2022-08-08T23:56:31.773Z,65.27
2022-08-08T23:58:59.078Z,65.44
